createdAt,value
2023-09-18T00:00:23.209Z,70.97
2023-09-18T00:01:23.226Z,70.53
2023-09-18T00:02:23.216Z,70.27
2023-09-18T00:03:23.238Z,70.41
2023-09-18T00:04:23.153Z,70.44
2023-09-18T00:05:23.127Z,70.85
2023-09-18T00:06:23.126Z,70.26
2023-09-18T00:07:23.092Z,70.17
2023-09-18T00:08:23.108Z,70.77
2023-09-18T00:09:23.073Z,70.76
2023-09-18T00:10:23.051Z,70.53
2023-09-18T00:11:23.090Z,70.61
2023-09-18T00:12:23.025Z,70.69
2023-09-18T00:13:23.050Z,70.93
2023-09-18T00:14:23.065Z,70.35
2023-09-18T00:15:23.013Z,70.09
2023-09-18T00:16:23.035Z,70.04
2023-09-18T00:17:22.980Z,70.34
2023-09-18T00:18:22.981Z,69.92
2023-09-18T00:19:22.931Z,69.95
2023-09-18T00:20:22.940Z,69.78
2023-09-18T00:21:22.920Z,70.06
2023-09-18T00:22:22.899Z,70.05
2023-09-18T00:23:22.916Z,70.45
2023-09-18T00:24:22.873Z,70.06
2023-09-18T00:25:22.874Z,69.96
2023-09-18T00:26:22.907Z,70.00
2023-09-18T00:27:22.826Z,70.03
2023-09-18T00:28:22.827Z,69.69
2023-09-18T00:29:22.825Z,69.75
2023-09-18T00:30:22.794Z,69.77
2023-09-18T00:31:22.844Z,69.68
2023-09-18T00:32:22.812Z,69.66
2023-09-18T00:33:22.787Z,69.91
2023-09-18T00:34:22.786Z,69.84
2023-09-18T00:35:22.752Z,69.73
2023-09-18T00:36:22.734Z,69.66
2023-09-18T00:37:22.702Z,69.78
2023-09-18T00:38:22.737Z,69.73
2023-09-18T00:39:22.668Z,69.78
2023-09-18T00:40:22.677Z,69.75
2023-09-18T00:41:22.736Z,69.50
2023-09-18T00:42:22.647Z,69.82
2023-09-18T00:43:22.616Z,69.70
2023-09-18T00:44:22.654Z,69.58
2023-09-18T00:45:22.584Z,69.59
2023-09-18T00:46:22.582Z,69.58
2023-09-18T00:47:22.675Z,69.67
2023-09-18T00:48:22.587Z,69.56
2023-09-18T00:49:22.536Z,69.51
2023-09-18T00:50:22.618Z,69.99
2023-09-18T00:51:22.511Z,69.82
2023-09-18T00:52:22.511Z,69.50
2023-09-18T00:53:22.556Z,69.52
2023-09-18T00:54:22.476Z,69.91
2023-09-18T00:55:22.498Z,70.03
2023-09-18T00:56:24.081Z,69.51
2023-09-18T00:57:22.435Z,70.22
2023-09-18T00:58:22.435Z,69.84
2023-09-18T00:59:22.460Z,69.17
2023-09-18T01:00:22.399Z,69.58
2023-09-18T01:01:22.434Z,69.77
2023-09-18T01:02:22.477Z,69.47
2023-09-18T01:03:22.590Z,69.25
2023-09-18T01:04:22.349Z,69.27
2023-09-18T01:05:22.381Z,69.29
2023-09-18T01:06:22.328Z,69.14
2023-09-18T01:07:22.313Z,69.88
2023-09-18T01:08:22.314Z,69.28
2023-09-18T01:09:22.273Z,69.19
2023-09-18T01:10:22.260Z,69.23
2023-09-18T01:11:22.282Z,68.91
2023-09-18T01:12:22.244Z,69.13
2023-09-18T01:13:22.219Z,68.56
2023-09-18T01:14:22.235Z,68.46
2023-09-18T01:15:22.202Z,68.35
2023-09-18T01:16:22.222Z,67.92
2023-09-18T01:17:22.219Z,67.78
2023-09-18T01:18:22.203Z,67.95
2023-09-18T01:19:22.138Z,67.42
2023-09-18T01:20:22.207Z,66.89
2023-09-18T01:21:22.212Z,67.40
2023-09-18T01:22:22.126Z,68.31
2023-09-18T01:23:22.171Z,68.06
2023-09-18T01:24:22.072Z,68.38
2023-09-18T01:25:22.062Z,67.36
2023-09-18T01:26:22.059Z,67.44
2023-09-18T01:27:22.045Z,66.04
2023-09-18T01:28:22.026Z,66.33
2023-09-18T01:29:22.046Z,66.88
2023-09-18T01:30:21.996Z,66.31
2023-09-18T01:31:22.863Z,66.08
2023-09-18T01:32:22.004Z,65.77
2023-09-18T01:33:22.031Z,66.30
2023-09-18T01:34:21.954Z,65.81
2023-09-18T01:35:22.091Z,65.87
2023-09-18T01:36:21.915Z,65.68
2023-09-18T01:37:21.915Z,66.59
2023-09-18T01:38:21.920Z,65.12
2023-09-18T01:39:21.872Z,65.58
2023-09-18T01:40:21.868Z,65.66
2023-09-18T01:41:21.861Z,65.34
2023-09-18T01:42:21.827Z,66.09
2023-09-18T01:43:21.829Z,65.77
2023-09-18T01:44:21.890Z,65.68
2023-09-18T01:45:21.791Z,66.12
2023-09-18T01:46:21.818Z,67.50
2023-09-18T01:47:21.799Z,68.38
2023-09-18T01:48:21.790Z,67.88
2023-09-18T01:49:21.735Z,68.34
2023-09-18T01:50:21.757Z,69.37
2023-09-18T01:51:21.727Z,68.79
2023-09-18T01:52:21.718Z,68.00
2023-09-18T01:53:21.765Z,67.99
2023-09-18T01:54:21.681Z,67.89
2023-09-18T01:55:21.655Z,67.38
2023-09-18T01:56:21.667Z,67.07
2023-09-18T01:57:21.641Z,66.92
2023-09-18T01:58:21.613Z,67.22
2023-09-18T01:59:21.654Z,67.06
2023-09-18T02:00:21.595Z,67.21
2023-09-18T02:01:21.572Z,66.99
2023-09-18T02:02:25.150Z,66.79
2023-09-18T02:03:36.470Z,67.09
2023-09-18T02:05:05.585Z,67.22
2023-09-18T02:05:21.671Z,67.87
2023-09-18T02:06:21.771Z,67.70
2023-09-18T02:07:21.663Z,67.36
2023-09-18T02:08:21.545Z,67.77
2023-09-18T02:09:21.485Z,68.49
2023-09-18T02:10:21.481Z,67.82
2023-09-18T02:11:21.484Z,67.31
2023-09-18T02:12:21.439Z,67.21
2023-09-18T02:13:21.437Z,67.04
2023-09-18T02:14:21.454Z,67.35
2023-09-18T02:15:21.404Z,67.04
2023-09-18T02:16:21.407Z,67.20
2023-09-18T02:17:21.420Z,67.35
2023-09-18T02:18:21.386Z,67.32
2023-09-18T02:19:21.352Z,67.04
2023-09-18T02:20:21.352Z,67.53
2023-09-18T02:21:21.316Z,67.48
2023-09-18T02:22:21.286Z,67.04
2023-09-18T02:23:21.304Z,66.92
2023-09-18T02:24:21.630Z,66.81
2023-09-18T02:25:21.255Z,66.78
2023-09-18T02:26:21.275Z,66.86
2023-09-18T02:27:21.257Z,66.81
2023-09-18T02:28:21.238Z,67.50
2023-09-18T02:29:21.223Z,67.41
2023-09-18T02:30:21.196Z,68.30
2023-09-18T02:31:21.178Z,68.84
2023-09-18T02:32:21.221Z,69.32
2023-09-18T02:33:21.257Z,69.44
2023-09-18T02:34:21.143Z,68.71
2023-09-18T02:35:21.146Z,68.04
2023-09-18T02:36:21.116Z,67.73
2023-09-18T02:37:21.088Z,66.82
2023-09-18T02:38:21.100Z,67.06
2023-09-18T02:39:21.074Z,66.71
2023-09-18T02:40:21.063Z,67.01
2023-09-18T02:41:21.082Z,66.78
2023-09-18T02:42:21.025Z,66.51
2023-09-18T02:43:21.010Z,67.08
2023-09-18T02:44:21.053Z,66.72
2023-09-18T02:45:21.000Z,66.76
2023-09-18T02:46:21.042Z,66.57
2023-09-18T02:47:21.006Z,66.71
2023-09-18T02:48:20.956Z,66.79
2023-09-18T02:49:20.936Z,66.73
2023-09-18T02:50:20.962Z,66.75
2023-09-18T02:51:20.921Z,66.70
2023-09-18T02:52:20.890Z,66.71
2023-09-18T02:53:20.965Z,66.91
2023-09-18T02:54:20.876Z,66.90
2023-09-18T02:55:20.871Z,67.11
2023-09-18T02:56:20.865Z,67.26
2023-09-18T02:57:20.841Z,67.39
2023-09-18T02:58:20.811Z,67.33
2023-09-18T02:59:20.827Z,67.54
2023-09-18T03:00:33.081Z,67.60
2023-09-18T03:01:20.823Z,67.61
2023-09-18T03:02:20.879Z,67.42
2023-09-18T03:03:20.807Z,67.43
2023-09-18T03:04:20.734Z,67.45
2023-09-18T03:05:20.801Z,67.71
2023-09-18T03:06:20.717Z,67.75
2023-09-18T03:07:20.708Z,67.58
2023-09-18T03:08:20.717Z,68.20
2023-09-18T03:09:20.688Z,67.86
2023-09-18T03:10:20.671Z,67.80
2023-09-18T03:11:21.301Z,68.58
2023-09-18T03:12:20.650Z,69.18
2023-09-18T03:13:20.617Z,70.04
2023-09-18T03:14:20.681Z,70.19
2023-09-18T03:15:20.591Z,69.97
2023-09-18T03:16:20.640Z,69.73
2023-09-18T03:17:20.581Z,69.48
2023-09-18T03:18:20.590Z,69.31
2023-09-18T03:19:20.540Z,69.29
2023-09-18T03:20:20.571Z,69.57
2023-09-18T03:21:20.517Z,69.65
2023-09-18T03:22:20.509Z,69.14
2023-09-18T03:23:20.586Z,69.19
2023-09-18T03:24:20.469Z,69.11
2023-09-18T03:25:20.475Z,69.06
2023-09-18T03:26:20.527Z,69.14
2023-09-18T03:27:20.427Z,69.23
2023-09-18T03:28:20.443Z,68.92
2023-09-18T03:29:20.432Z,68.65
2023-09-18T03:30:20.392Z,68.85
2023-09-18T03:31:20.418Z,68.55
2023-09-18T03:32:20.431Z,68.88
2023-09-18T03:33:20.470Z,68.16
2023-09-18T03:34:20.373Z,68.52
2023-09-18T03:35:20.335Z,68.75
2023-09-18T03:36:20.309Z,67.59
2023-09-18T03:37:20.348Z,67.36
2023-09-18T03:38:20.302Z,68.45
2023-09-18T03:39:20.261Z,68.74
2023-09-18T03:40:20.274Z,68.68
2023-09-18T03:41:20.293Z,69.21
2023-09-18T03:42:20.223Z,69.42
2023-09-18T03:43:20.217Z,69.66
2023-09-18T03:44:20.223Z,68.92
2023-09-18T03:45:20.204Z,69.42
2023-09-18T03:46:20.184Z,69.21
2023-09-18T03:47:20.241Z,68.60
2023-09-18T03:48:20.191Z,67.74
2023-09-18T03:49:20.131Z,68.30
2023-09-18T03:50:20.163Z,67.53
2023-09-18T03:51:20.122Z,67.67
2023-09-18T03:52:20.090Z,67.80
2023-09-18T03:53:20.085Z,68.58
2023-09-18T03:54:20.078Z,68.83
2023-09-18T03:55:20.065Z,69.27
2023-09-18T03:56:20.129Z,69.07
2023-09-18T03:57:20.039Z,69.24
2023-09-18T03:58:20.034Z,68.87
2023-09-18T03:59:20.116Z,68.87
2023-09-18T04:00:19.977Z,68.89
2023-09-18T04:01:20.006Z,69.44
2023-09-18T04:02:19.985Z,69.18
2023-09-18T04:03:20.001Z,69.17
2023-09-18T04:04:19.964Z,69.06
2023-09-18T04:05:20.256Z,69.08
2023-09-18T04:06:19.899Z,68.89
2023-09-18T04:07:19.900Z,68.71
2023-09-18T04:08:19.929Z,68.83
2023-09-18T04:09:19.871Z,67.97
2023-09-18T04:10:19.874Z,68.23
2023-09-18T04:11:19.879Z,67.80
2023-09-18T04:12:19.834Z,67.34
2023-09-18T04:13:19.817Z,67.61
2023-09-18T04:14:19.851Z,67.09
2023-09-18T04:15:19.886Z,67.96
2023-09-18T04:16:19.854Z,68.05
2023-09-18T04:17:19.799Z,68.29
2023-09-18T04:18:19.858Z,67.82
2023-09-18T04:19:19.733Z,67.75
2023-09-18T04:20:19.780Z,67.94
2023-09-18T04:21:19.702Z,67.91
2023-09-18T04:22:19.702Z,67.97
2023-09-18T04:23:19.716Z,68.18
2023-09-18T04:24:19.656Z,69.37
2023-09-18T04:25:19.658Z,69.45
2023-09-18T04:26:19.671Z,69.34
2023-09-18T04:27:19.622Z,69.09
2023-09-18T04:28:19.685Z,69.36
2023-09-18T04:29:19.618Z,68.49
2023-09-18T04:30:19.585Z,68.62
2023-09-18T04:31:19.579Z,68.33
2023-09-18T04:32:19.680Z,68.58
2023-09-18T04:33:19.880Z,68.54
2023-09-18T04:34:19.561Z,68.59
2023-09-18T04:35:19.537Z,68.21
2023-09-18T04:36:19.503Z,68.24
2023-09-18T04:37:19.490Z,68.54
2023-09-18T04:38:19.498Z,68.90
2023-09-18T04:39:19.484Z,69.43
2023-09-18T04:40:19.452Z,69.54
2023-09-18T04:41:19.515Z,69.65
2023-09-18T04:42:19.443Z,69.91
2023-09-18T04:43:19.422Z,70.02
2023-09-18T04:44:19.476Z,69.69
2023-09-18T04:45:19.395Z,70.17
2023-09-18T04:46:19.403Z,69.94
2023-09-18T04:47:19.409Z,68.67
2023-09-18T04:48:19.420Z,68.06
2023-09-18T04:49:19.356Z,68.33
2023-09-18T04:50:19.870Z,68.21
2023-09-18T04:51:19.334Z,68.19
2023-09-18T04:52:19.323Z,68.47
2023-09-18T04:53:19.327Z,68.20
2023-09-18T04:54:19.290Z,68.73
2023-09-18T04:55:19.295Z,68.85
2023-09-18T04:56:19.324Z,68.99
2023-09-18T04:57:19.858Z,68.96
2023-09-18T04:58:19.239Z,69.04
2023-09-18T04:59:19.244Z,69.22
2023-09-18T05:00:19.199Z,69.97
2023-09-18T05:01:19.212Z,70.02
2023-09-18T05:02:19.265Z,70.42
2023-09-18T05:03:19.288Z,70.50
2023-09-18T05:04:19.161Z,70.42
2023-09-18T05:05:19.334Z,70.42
2023-09-18T05:06:19.231Z,70.55
2023-09-18T05:07:19.117Z,70.21
2023-09-18T05:08:19.164Z,70.11
2023-09-18T05:09:19.100Z,70.33
2023-09-18T05:10:19.081Z,70.00
2023-09-18T05:11:19.084Z,69.77
2023-09-18T05:12:19.057Z,70.24
2023-09-18T05:13:19.037Z,69.97
2023-09-18T05:14:19.068Z,70.08
2023-09-18T05:15:19.051Z,69.97
2023-09-18T05:16:19.016Z,70.26
2023-09-18T05:17:19.029Z,70.04
2023-09-18T05:18:19.011Z,69.38
2023-09-18T05:19:18.976Z,69.67
2023-09-18T05:20:19.067Z,69.68
2023-09-18T05:21:18.943Z,70.03
2023-09-18T05:22:18.930Z,70.34
2023-09-18T05:23:19.281Z,70.02
2023-09-18T05:24:18.905Z,70.17
2023-09-18T05:25:18.897Z,69.83
2023-09-18T05:26:18.907Z,69.32
2023-09-18T05:27:18.861Z,69.33
2023-09-18T05:28:18.860Z,69.33
2023-09-18T05:29:18.923Z,69.37
2023-09-18T05:30:18.833Z,69.86
2023-09-18T05:31:18.886Z,69.31
2023-09-18T05:32:18.837Z,69.72
2023-09-18T05:33:18.841Z,70.52
2023-09-18T05:34:18.766Z,70.45
2023-09-18T05:35:18.789Z,70.20
2023-09-18T05:36:18.742Z,69.90
2023-09-18T05:37:18.773Z,69.83
2023-09-18T05:38:18.729Z,69.50
2023-09-18T05:39:18.709Z,69.92
2023-09-18T05:40:18.714Z,68.91
2023-09-18T05:41:18.722Z,68.95
2023-09-18T05:42:18.669Z,69.19
2023-09-18T05:43:18.667Z,69.99
2023-09-18T05:44:18.654Z,70.40
2023-09-18T05:45:18.671Z,70.70
2023-09-18T05:46:18.661Z,70.10
2023-09-18T05:47:18.651Z,69.60
2023-09-18T05:48:18.660Z,69.52
2023-09-18T05:49:18.586Z,69.74
2023-09-18T05:50:18.659Z,69.70
2023-09-18T05:51:18.598Z,69.78
2023-09-18T05:52:18.545Z,70.17
2023-09-18T05:53:18.585Z,71.41
2023-09-18T05:54:18.527Z,73.17
2023-09-18T05:55:18.522Z,73.97
2023-09-18T05:56:18.523Z,74.22
2023-09-18T05:57:18.496Z,74.70
2023-09-18T05:58:18.485Z,74.90
2023-09-18T05:59:18.498Z,73.61
2023-09-18T06:00:18.467Z,72.65
2023-09-18T06:01:18.451Z,72.79
2023-09-18T06:02:18.461Z,72.59
2023-09-18T06:03:18.535Z,72.23
2023-09-18T06:04:18.537Z,72.13
2023-09-18T06:05:18.401Z,72.06
2023-09-18T06:06:18.429Z,72.97
2023-09-18T06:07:18.367Z,72.14
2023-09-18T06:08:18.380Z,71.49
2023-09-18T06:09:18.341Z,71.73
2023-09-18T06:10:18.316Z,71.25
2023-09-18T06:11:18.339Z,71.25
2023-09-18T06:12:18.309Z,71.38
2023-09-18T06:13:18.278Z,70.76
2023-09-18T06:14:18.277Z,70.81
2023-09-18T06:15:18.274Z,71.48
2023-09-18T06:16:18.268Z,70.74
2023-09-18T06:17:18.265Z,71.37
2023-09-18T06:18:18.302Z,71.23
2023-09-18T06:19:18.197Z,69.71
2023-09-18T06:20:18.250Z,70.23
2023-09-18T06:21:18.183Z,68.98
2023-09-18T06:22:18.184Z,69.42
2023-09-18T06:23:18.168Z,69.68
2023-09-18T06:24:18.136Z,69.77
2023-09-18T06:25:18.130Z,69.40
2023-09-18T06:26:18.205Z,70.13
2023-09-18T06:27:18.111Z,70.06
2023-09-18T06:28:18.083Z,70.71
2023-09-18T06:29:18.103Z,71.37
2023-09-18T06:30:18.094Z,71.13
2023-09-18T06:31:18.107Z,71.03
2023-09-18T06:32:18.086Z,70.59
2023-09-18T06:33:18.171Z,71.26
2023-09-18T06:34:20.750Z,70.85
2023-09-18T06:35:18.048Z,71.51
2023-09-18T06:36:17.999Z,71.62
2023-09-18T06:37:17.994Z,71.26
2023-09-18T06:38:17.977Z,70.88
2023-09-18T06:39:17.964Z,70.92
2023-09-18T06:40:17.935Z,70.49
2023-09-18T06:41:17.978Z,70.48
2023-09-18T06:42:17.924Z,70.72
2023-09-18T06:43:17.920Z,70.77
2023-09-18T06:44:17.911Z,70.84
2023-09-18T06:45:17.870Z,70.50
2023-09-18T06:46:17.911Z,70.55
2023-09-18T06:47:17.906Z,71.04
2023-09-18T06:48:17.862Z,71.32
2023-09-18T06:49:17.817Z,71.70
2023-09-18T06:50:17.818Z,71.30
2023-09-18T06:51:21.920Z,70.91
2023-09-18T06:52:17.787Z,71.68
2023-09-18T06:53:17.791Z,71.46
2023-09-18T06:54:17.749Z,71.19
2023-09-18T06:55:17.760Z,71.18
2023-09-18T06:56:17.817Z,71.35
2023-09-18T06:57:17.739Z,71.14
2023-09-18T06:58:17.719Z,71.39
2023-09-18T06:59:17.762Z,71.07
2023-09-18T07:00:17.705Z,71.27
2023-09-18T07:01:17.693Z,71.58
2023-09-18T07:02:17.700Z,72.05
2023-09-18T07:03:17.791Z,71.88
2023-09-18T07:04:17.789Z,71.98
2023-09-18T07:05:17.797Z,72.23
2023-09-18T07:06:17.619Z,71.39
2023-09-18T07:07:17.625Z,71.70
2023-09-18T07:08:17.588Z,71.95
2023-09-18T07:09:17.579Z,71.74
2023-09-18T07:10:17.569Z,71.81
2023-09-18T07:11:17.553Z,71.77
2023-09-18T07:12:17.529Z,71.51
2023-09-18T07:13:17.510Z,70.42
2023-09-18T07:14:17.534Z,70.23
2023-09-18T07:15:17.519Z,70.42
2023-09-18T07:16:17.528Z,69.89
2023-09-18T07:17:17.513Z,69.99
2023-09-18T07:18:17.501Z,69.67
2023-09-18T07:19:17.536Z,68.70
2023-09-18T07:20:19.912Z,69.73
2023-09-18T07:21:17.433Z,70.05
2023-09-18T07:22:17.386Z,69.82
2023-09-18T07:23:17.408Z,69.53
2023-09-18T07:24:17.374Z,68.84
2023-09-18T07:25:17.367Z,68.67
2023-09-18T07:26:17.384Z,69.08
2023-09-18T07:27:17.329Z,69.08
2023-09-18T07:28:17.316Z,68.50
2023-09-18T07:29:17.415Z,68.77
2023-09-18T07:30:17.368Z,68.09
2023-09-18T07:31:17.310Z,68.69
2023-09-18T07:32:29.782Z,69.01
2023-09-18T07:33:17.350Z,69.20
2023-09-18T07:34:17.250Z,68.62
2023-09-18T07:35:17.453Z,69.05
2023-09-18T07:36:17.227Z,69.95
2023-09-18T07:37:17.200Z,69.43
2023-09-18T07:38:17.226Z,70.04
2023-09-18T07:39:17.167Z,70.41
2023-09-18T07:40:17.164Z,70.84
2023-09-18T07:41:17.216Z,69.85
2023-09-18T07:42:17.126Z,69.63
2023-09-18T07:43:17.144Z,70.62
2023-09-18T07:44:17.095Z,71.14
2023-09-18T07:45:17.109Z,71.68
2023-09-18T07:46:17.136Z,71.38
2023-09-18T07:47:17.104Z,71.82
2023-09-18T07:48:17.082Z,71.05
2023-09-18T07:49:17.043Z,71.15
2023-09-18T07:50:19.636Z,70.88
2023-09-18T07:51:17.033Z,70.94
2023-09-18T07:52:17.009Z,71.35
2023-09-18T07:53:17.031Z,71.05
2023-09-18T07:54:16.985Z,70.53
2023-09-18T07:55:16.957Z,70.31
2023-09-18T07:56:16.988Z,70.46
2023-09-18T07:57:16.980Z,70.53
2023-09-18T07:58:16.925Z,70.36
2023-09-18T07:59:16.927Z,69.38
2023-09-18T08:00:16.949Z,69.32
2023-09-18T08:01:16.902Z,69.82
2023-09-18T08:02:16.891Z,69.71
2023-09-18T08:03:16.904Z,69.49
2023-09-18T08:04:16.900Z,68.91
2023-09-18T08:05:16.904Z,69.27
2023-09-18T08:06:16.824Z,69.48
2023-09-18T08:07:16.842Z,69.24
2023-09-18T08:08:16.879Z,69.20
2023-09-18T08:09:16.821Z,69.00
2023-09-18T08:10:16.791Z,69.09
2023-09-18T08:11:16.761Z,69.52
2023-09-18T08:12:16.767Z,69.26
2023-09-18T08:13:16.717Z,69.00
2023-09-18T08:14:16.765Z,69.11
2023-09-18T08:15:16.725Z,69.25
2023-09-18T08:16:16.706Z,69.39
2023-09-18T08:17:16.667Z,69.33
2023-09-18T08:18:16.854Z,68.89
2023-09-18T08:19:16.717Z,69.03
2023-09-18T08:20:16.661Z,69.23
2023-09-18T08:21:16.619Z,70.10
2023-09-18T08:22:16.665Z,69.77
2023-09-18T08:23:16.623Z,69.66
2023-09-18T08:24:16.581Z,68.94
2023-09-18T08:25:16.576Z,68.42
2023-09-18T08:26:16.610Z,69.08
2023-09-18T08:27:16.532Z,68.39
2023-09-18T08:28:16.552Z,68.78
2023-09-18T08:29:20.294Z,68.90
2023-09-18T08:30:16.586Z,69.20
2023-09-18T08:31:16.545Z,68.80
2023-09-18T08:32:16.504Z,68.96
2023-09-18T08:33:16.557Z,68.89
2023-09-18T08:34:16.470Z,68.83
2023-09-18T08:35:16.480Z,68.43
2023-09-18T08:36:16.422Z,68.34
2023-09-18T08:37:16.407Z,69.01
2023-09-18T08:38:16.447Z,69.59
2023-09-18T08:39:16.400Z,69.62
2023-09-18T08:40:16.367Z,69.00
2023-09-18T08:41:16.388Z,68.99
2023-09-18T08:42:16.342Z,69.03
2023-09-18T08:43:16.320Z,68.49
2023-09-18T08:44:16.355Z,68.47
2023-09-18T08:45:16.321Z,68.52
2023-09-18T08:46:16.303Z,67.89
2023-09-18T08:47:16.297Z,67.92
2023-09-18T08:48:16.344Z,67.87
2023-09-18T08:49:16.252Z,67.89
2023-09-18T08:50:16.282Z,67.82
2023-09-18T08:51:16.221Z,67.57
2023-09-18T08:52:16.239Z,67.82
2023-09-18T08:53:16.224Z,67.95
2023-09-18T08:54:16.182Z,67.82
2023-09-18T08:55:16.166Z,67.98
2023-09-18T08:56:16.172Z,67.61
2023-09-18T08:57:16.159Z,67.91
2023-09-18T08:58:16.129Z,67.76
2023-09-18T08:59:16.157Z,68.44
2023-09-18T09:00:16.099Z,68.20
2023-09-18T09:01:16.176Z,68.32
2023-09-18T09:02:16.108Z,68.48
2023-09-18T09:03:16.273Z,68.28
2023-09-18T09:04:16.077Z,68.16
2023-09-18T09:05:16.124Z,68.50
2023-09-18T09:06:16.012Z,68.46
2023-09-18T09:07:16.001Z,68.72
2023-09-18T09:08:16.038Z,68.95
2023-09-18T09:09:15.989Z,68.81
2023-09-18T09:10:15.990Z,68.50
2023-09-18T09:11:15.983Z,68.64
2023-09-18T09:12:15.947Z,69.16
2023-09-18T09:13:26.908Z,68.86
2023-09-18T09:14:15.992Z,68.76
2023-09-18T09:15:15.987Z,68.82
2023-09-18T09:16:15.909Z,69.20
2023-09-18T09:17:15.888Z,69.21
2023-09-18T09:18:15.885Z,69.03
2023-09-18T09:19:15.848Z,68.91
2023-09-18T09:20:15.910Z,69.19
2023-09-18T09:21:15.812Z,69.44
2023-09-18T09:22:15.804Z,69.35
2023-09-18T09:23:15.806Z,69.61
2023-09-18T09:24:15.784Z,68.99
2023-09-18T09:25:15.762Z,68.89
2023-09-18T09:26:15.827Z,68.91
2023-09-18T09:27:15.780Z,68.96
2023-09-18T09:28:15.719Z,68.88
2023-09-18T09:29:15.737Z,69.13
2023-09-18T09:30:15.708Z,68.86
2023-09-18T09:31:15.914Z,69.08
2023-09-18T09:32:15.743Z,69.04
2023-09-18T09:33:15.764Z,68.97
2023-09-18T09:34:15.652Z,68.72
2023-09-18T09:35:15.641Z,68.58
2023-09-18T09:36:15.620Z,68.62
2023-09-18T09:37:15.620Z,68.80
2023-09-18T09:38:15.737Z,69.03
2023-09-18T09:39:15.695Z,69.07
2023-09-18T09:40:15.663Z,69.40
2023-09-18T09:41:15.671Z,69.44
2023-09-18T09:42:15.534Z,69.43
2023-09-18T09:43:15.527Z,69.52
2023-09-18T09:44:15.544Z,68.99
2023-09-18T09:45:15.510Z,69.26
2023-09-18T09:46:15.564Z,69.12
2023-09-18T09:47:15.595Z,68.99
2023-09-18T09:48:15.493Z,68.94
2023-09-18T09:49:15.455Z,68.81
2023-09-18T09:50:15.445Z,68.10
2023-09-18T09:51:15.419Z,68.54
2023-09-18T09:52:15.450Z,68.28
2023-09-18T09:53:15.443Z,68.73
2023-09-18T09:54:15.392Z,68.70
2023-09-18T09:55:15.382Z,68.76
2023-09-18T09:56:15.388Z,68.61
2023-09-18T09:57:15.337Z,68.84
2023-09-18T09:58:15.798Z,68.30
2023-09-18T09:59:15.377Z,67.96
2023-09-18T10:00:15.301Z,68.16
2023-09-18T10:01:15.344Z,68.38
2023-09-18T10:02:15.388Z,67.83
2023-09-18T10:03:15.310Z,68.04
2023-09-18T10:04:15.266Z,68.28
2023-09-18T10:05:15.243Z,68.64
2023-09-18T10:06:21.850Z,68.21
2023-09-18T10:07:15.259Z,68.34
2023-09-18T10:08:15.307Z,67.85
2023-09-18T10:09:15.261Z,67.53
2023-09-18T10:10:15.213Z,68.12
2023-09-18T10:11:15.257Z,68.42
2023-09-18T10:12:15.171Z,68.01
2023-09-18T10:13:15.175Z,68.71
2023-09-18T10:14:15.188Z,68.68
2023-09-18T10:15:15.199Z,68.39
2023-09-18T10:16:15.193Z,66.81
2023-09-18T10:17:15.132Z,67.53
2023-09-18T10:18:15.168Z,67.44
2023-09-18T10:19:15.065Z,67.12
2023-09-18T10:20:15.104Z,67.05
2023-09-18T10:21:15.028Z,67.07
2023-09-18T10:22:15.025Z,67.50
2023-09-18T10:23:15.087Z,67.66
2023-09-18T10:24:14.993Z,67.54
2023-09-18T10:25:14.985Z,67.52
2023-09-18T10:26:14.998Z,68.14
2023-09-18T10:27:14.962Z,67.81
2023-09-18T10:28:14.948Z,67.80
2023-09-18T10:29:14.970Z,67.29
2023-09-18T10:30:14.945Z,68.21
2023-09-18T10:31:14.949Z,67.12
2023-09-18T10:32:14.932Z,67.35
2023-09-18T10:33:15.059Z,66.42
2023-09-18T10:34:14.948Z,66.65
2023-09-18T10:35:14.869Z,67.02
2023-09-18T10:36:14.842Z,66.82
2023-09-18T10:37:14.862Z,66.27
2023-09-18T10:38:14.833Z,65.83
2023-09-18T10:39:14.850Z,65.87
2023-09-18T10:40:14.793Z,66.00
2023-09-18T10:41:14.839Z,66.08
2023-09-18T10:42:15.638Z,65.97
2023-09-18T10:43:15.039Z,66.63
2023-09-18T10:44:14.855Z,66.53
2023-09-18T10:45:14.825Z,66.13
2023-09-18T10:46:14.802Z,65.79
2023-09-18T10:47:14.746Z,65.96
2023-09-18T10:48:14.864Z,65.80
2023-09-18T10:49:14.712Z,65.48
2023-09-18T10:50:14.732Z,65.42
2023-09-18T10:51:14.716Z,65.68
2023-09-18T10:52:14.672Z,65.74
2023-09-18T10:53:14.724Z,66.18
2023-09-18T10:54:15.246Z,65.50
2023-09-18T10:55:14.667Z,65.21
2023-09-18T10:56:14.719Z,65.28
2023-09-18T10:57:14.589Z,65.48
2023-09-18T10:58:14.628Z,65.78
2023-09-18T10:59:14.592Z,65.41
2023-09-18T11:00:14.649Z,65.33
2023-09-18T11:01:14.573Z,65.82
2023-09-18T11:02:14.547Z,66.08
2023-09-18T11:03:14.696Z,65.73
2023-09-18T11:04:14.608Z,66.07
2023-09-18T11:05:14.546Z,66.30
2023-09-18T11:06:14.492Z,66.06
2023-09-18T11:07:14.438Z,66.05
2023-09-18T11:08:15.438Z,65.56
2023-09-18T11:09:14.454Z,65.58
2023-09-18T11:10:14.415Z,66.07
2023-09-18T11:11:14.744Z,65.86
2023-09-18T11:12:14.395Z,66.38
2023-09-18T11:13:14.471Z,66.42
2023-09-18T11:14:14.617Z,66.51
2023-09-18T11:15:14.355Z,65.81
2023-09-18T11:16:14.423Z,65.14
2023-09-18T11:17:14.337Z,64.97
2023-09-18T11:18:14.424Z,64.87
2023-09-18T11:19:14.353Z,64.10
2023-09-18T11:20:14.405Z,64.05
2023-09-18T11:21:14.305Z,64.65
2023-09-18T11:22:14.302Z,63.80
2023-09-18T11:23:14.305Z,63.91
2023-09-18T11:24:14.439Z,63.73
2023-09-18T11:26:14.230Z,64.34
2023-09-18T11:27:14.231Z,64.50
2023-09-18T11:28:14.200Z,64.65
2023-09-18T11:29:14.235Z,64.67
2023-09-18T11:30:14.197Z,64.82
2023-09-18T11:31:14.155Z,64.56
2023-09-18T11:32:14.199Z,64.95
2023-09-18T11:33:14.218Z,65.25
2023-09-18T11:34:14.221Z,64.70
2023-09-18T11:35:14.084Z,64.84
2023-09-18T11:36:14.070Z,65.12
2023-09-18T11:37:14.074Z,65.26
2023-09-18T11:38:14.065Z,65.18
2023-09-18T11:39:14.092Z,65.22
2023-09-18T11:40:14.066Z,65.47
2023-09-18T11:41:14.013Z,65.44
2023-09-18T11:42:14.045Z,65.53
2023-09-18T11:43:13.980Z,65.54
2023-09-18T11:44:13.995Z,65.71
2023-09-18T11:45:13.951Z,65.60
2023-09-18T11:46:14.016Z,65.93
2023-09-18T11:47:13.990Z,65.98
2023-09-18T11:48:13.964Z,66.14
2023-09-18T11:49:13.978Z,66.33
2023-09-18T11:50:13.914Z,66.55
2023-09-18T11:51:13.892Z,66.99
2023-09-18T11:52:13.857Z,67.15
2023-09-18T11:53:13.861Z,67.43
2023-09-18T11:54:13.860Z,67.14
2023-09-18T11:55:13.842Z,67.23
2023-09-18T11:56:14.044Z,67.40
2023-09-18T11:57:13.830Z,67.48
2023-09-18T11:58:13.804Z,67.98
2023-09-18T11:59:13.776Z,68.23
2023-09-18T12:00:13.784Z,68.15
2023-09-18T12:01:13.813Z,68.50
2023-09-18T12:02:13.736Z,68.44
2023-09-18T12:03:13.847Z,68.70
2023-09-18T12:04:13.827Z,68.66
2023-09-18T12:05:13.722Z,68.75
2023-09-18T12:06:13.703Z,69.03
2023-09-18T12:07:13.732Z,69.09
2023-09-18T12:08:13.661Z,68.86
2023-09-18T12:09:13.849Z,69.28
2023-09-18T12:10:13.647Z,69.75
2023-09-18T12:11:13.632Z,69.79
2023-09-18T12:12:13.584Z,70.41
2023-09-18T12:13:13.596Z,70.30
2023-09-18T12:14:13.624Z,71.00
2023-09-18T12:15:13.577Z,70.88
2023-09-18T12:16:13.605Z,71.44
2023-09-18T12:17:13.542Z,71.41
2023-09-18T12:18:13.535Z,71.39
2023-09-18T12:19:13.504Z,71.91
2023-09-18T12:20:13.726Z,72.12
2023-09-18T12:21:13.496Z,72.27
2023-09-18T12:22:13.488Z,72.27
2023-09-18T12:23:13.484Z,72.45
2023-09-18T12:24:13.457Z,72.65
2023-09-18T12:25:16.296Z,72.73
2023-09-18T12:26:13.440Z,72.72
2023-09-18T12:27:13.397Z,73.23
2023-09-18T12:28:13.384Z,73.23
2023-09-18T12:29:13.360Z,73.25
2023-09-18T12:30:13.364Z,73.16
2023-09-18T12:31:13.409Z,73.49
2023-09-18T12:32:13.330Z,73.34
2023-09-18T12:33:13.411Z,73.54
2023-09-18T12:34:13.325Z,73.64
2023-09-18T12:35:13.310Z,73.84
2023-09-18T12:36:13.356Z,73.93
2023-09-18T12:37:13.294Z,74.17
2023-09-18T12:38:13.275Z,74.21
2023-09-18T12:39:13.348Z,74.30
2023-09-18T12:40:13.318Z,74.43
2023-09-18T12:41:13.226Z,74.44
2023-09-18T12:42:13.216Z,74.87
2023-09-18T12:43:13.207Z,75.03
2023-09-18T12:44:13.204Z,75.04
2023-09-18T12:45:13.192Z,74.94
2023-09-18T12:46:13.173Z,74.96
2023-09-18T12:47:13.154Z,74.68
2023-09-18T12:48:13.161Z,74.69
2023-09-18T12:49:13.124Z,74.70
2023-09-18T12:50:13.130Z,74.68
2023-09-18T12:51:13.107Z,74.76
2023-09-18T12:52:13.087Z,74.78
2023-09-18T12:53:13.121Z,74.81